sensor_id;sensor_type;location;lat;lon;timestamp;temperature;humidity
11126;DHT22;5617;54.046;10.676;2024-01-11T00:01:08;1.30;99.90
11126;DHT22;5617;54.046;10.676;2024-01-11T00:03:18;1.30;99.90
11126;DHT22;5617;54.046;10.676;2024-01-11T00:05:26;1.20;99.90
11126;DHT22;5617;54.046;10.676;2024-01-11T00:07:34;1.20;99.90
11126;DHT22;5617;54.046;10.676;2024-01-11T00:09:43;1.10;99.90
11126;DHT22;5617;54.046;10.676;2024-01-11T00:11:51;1.10;99.90
11126;DHT22;5617;54.046;10.676;2024-01-11T00:14:01;1.20;99.90
11126;DHT22;5617;54.046;10.676;2024-01-11T00:16:09;1.10;99.90
11126;DHT22;5617;54.046;10.676;2024-01-11T00:18:17;1.10;99.90
11126;DHT22;5617;54.046;10.676;2024-01-11T00:20:26;1.00;99.90
11126;DHT22;5617;54.046;10.676;2024-01-11T00:22:34;1.00;99.90
11126;DHT22;5617;54.046;10.676;2024-01-11T00:24:42;1.00;99.90
11126;DHT22;5617;54.046;10.676;2024-01-11T00:26:51;1.00;99.90
11126;DHT22;5617;54.046;10.676;2024-01-11T00:29:00;1.00;99.90
11126;DHT22;5617;54.046;10.676;2024-01-11T00:31:09;1.00;99.90
11126;DHT22;5617;54.046;10.676;2024-01-11T00:33:18;0.90;99.90
11126;DHT22;5617;54.046;10.676;2024-01-11T00:35:26;0.90;99.90
11126;DHT22;5617;54.046;10.676;2024-01-11T00:37:35;0.90;99.90
11126;DHT22;5617;54.046;10.676;2024-01-11T00:39:43;1.00;99.90
11126;DHT22;5617;54.046;10.676;2024-01-11T00:41:51;0.90;99.90
11126;DHT22;5617;54.046;10.676;2024-01-11T00:44:01;1.00;99.90
11126;DHT22;5617;54.046;10.676;2024-01-11T00:46:10;0.90;99.90
11126;DHT22;5617;54.046;10.676;2024-01-11T00:48:18;0.90;99.90
11126;DHT22;5617;54.046;10.676;2024-01-11T00:50:26;0.90;99.90
11126;DHT22;5617;54.046;10.676;2024-01-11T00:52:35;0.90;99.90
11126;DHT22;5617;54.046;10.676;2024-01-11T00:54:43;0.90;99.90
11126;DHT22;5617;54.046;10.676;2024-01-11T00:56:51;0.90;99.90
11126;DHT22;5617;54.046;10.676;2024-01-11T00:59:01;1.00;99.90
11126;DHT22;5617;54.046;10.676;2024-01-11T01:01:10;0.80;99.90
11126;DHT22;5617;54.046;10.676;2024-01-11T01:03:18;0.90;99.90
11126;DHT22;5617;54.046;10.676;2024-01-11T01:05:27;0.80;99.90
11126;DHT22;5617;54.046;10.676;2024-01-11T01:07:35;0.80;99.90
11126;DHT22;5617;54.046;10.676;2024-01-11T01:09:43;0.80;99.90
11126;DHT22;5617;54.046;10.676;2024-01-11T01:11:51;0.80;99.90
11126;DHT22;5617;54.046;10.676;2024-01-11T01:14:01;0.90;99.90
11126;DHT22;5617;54.046;10.676;2024-01-11T01:16:09;0.80;99.90
11126;DHT22;5617;54.046;10.676;2024-01-11T01:18:18;0.80;99.90
11126;DHT22;5617;54.046;10.676;2024-01-11T01:20:27;0.70;99.90
11126;DHT22;5617;54.046;10.676;2024-01-11T01:22:35;0.70;99.90
11126;DHT22;5617;54.046;10.676;2024-01-11T01:24:43;0.70;99.90
11126;DHT22;5617;54.046;10.676;2024-01-11T01:26:52;0.70;99.90
11126;DHT22;5617;54.046;10.676;2024-01-11T01:29:01;0.70;99.90
11126;DHT22;5617;54.046;10.676;2024-01-11T01:31:10;0.80;99.90
11126;DHT22;5617;54.046;10.676;2024-01-11T01:33:18;0.80;99.90
11126;DHT22;5617;54.046;10.676;2024-01-11T01:35:26;0.80;99.90
11126;DHT22;5617;54.046;10.676;2024-01-11T01:37:35;0.80;99.90
11126;DHT22;5617;54.046;10.676;2024-01-11T01:39:43;0.80;99.90
11126;DHT22;5617;54.046;10.676;2024-01-11T01:41:52;0.80;99.90
11126;DHT22;5617;54.046;10.676;2024-01-11T01:44:01;0.80;99.90
11126;DHT22;5617;54.046;10.676;2024-01-11T01:46:10;0.70;99.90
11126;DHT22;5617;54.046;10.676;2024-01-11T01:48:18;0.70;99.90
11126;DHT22;5617;54.046;10.676;2024-01-11T01:50:27;0.70;99.90
11126;DHT22;5617;54.046;10.676;2024-01-11T01:52:36;0.70;99.90
11126;DHT22;5617;54.046;10.676;2024-01-11T01:54:46;0.80;99.90
11126;DHT22;5617;54.046;10.676;2024-01-11T01:56:55;0.80;99.90
11126;DHT22;5617;54.046;10.676;2024-01-11T01:59:06;0.80;99.90
11126;DHT22;5617;54.046;10.676;2024-01-11T02:01:19;0.80;99.90
11126;DHT22;5617;54.046;10.676;2024-01-11T02:03:29;0.80;99.90
11126;DHT22;5617;54.046;10.676;2024-01-11T02:05:41;0.80;99.90
11126;DHT22;5617;54.046;10.676;2024-01-11T02:07:51;0.70;99.90
11126;DHT22;5617;54.046;10.676;2024-01-11T02:09:59;0.70;99.90
11126;DHT22;5617;54.046;10.676;2024-01-11T02:12:09;0.70;99.90
11126;DHT22;5617;54.046;10.676;2024-01-11T02:14:21;0.70;99.90
11126;DHT22;5617;54.046;10.676;2024-01-11T02:16:29;0.70;99.90
11126;DHT22;5617;54.046;10.676;2024-01-11T02:18:37;0.70;99.90
11126;DHT22;5617;54.046;10.676;2024-01-11T02:20:46;0.70;99.90
11126;DHT22;5617;54.046;10.676;2024-01-11T02:22:58;0.70;99.90
11126;DHT22;5617;54.046;10.676;2024-01-11T02:25:10;0.70;99.90
11126;DHT22;5617;54.046;10.676;2024-01-11T02:27:19;0.70;99.90
11126;DHT22;5617;54.046;10.676;2024-01-11T02:29:29;0.70;99.90
11126;DHT22;5617;54.046;10.676;2024-01-11T02:31:38;0.70;99.90
11126;DHT22;5617;54.046;10.676;2024-01-11T02:33:47;0.70;99.90
11126;DHT22;5617;54.046;10.676;2024-01-11T02:35:56;0.70;99.90
11126;DHT22;5617;54.046;10.676;2024-01-11T02:38:05;0.80;99.90
11126;DHT22;5617;54.046;10.676;2024-01-11T02:40:14;0.80;99.90
11126;DHT22;5617;54.046;10.676;2024-01-11T02:42:26;0.80;99.90
11126;DHT22;5617;54.046;10.676;2024-01-11T02:44:34;0.80;99.90
11126;DHT22;5617;54.046;10.676;2024-01-11T02:46:44;0.70;99.90
11126;DHT22;5617;54.046;10.676;2024-01-11T02:48:52;0.70;99.90
11126;DHT22;5617;54.046;10.676;2024-01-11T02:51:00;0.90;99.90
11126;DHT22;5617;54.046;10.676;2024-01-11T02:53:10;0.80;99.90
11126;DHT22;5617;54.046;10.676;2024-01-11T02:55:19;0.60;99.90
11126;DHT22;5617;54.046;10.676;2024-01-11T02:57:28;0.60;99.90
11126;DHT22;5617;54.046;10.676;2024-01-11T02:59:36;0.50;99.90
11126;DHT22;5617;54.046;10.676;2024-01-11T03:01:43;0.50;99.90
11126;DHT22;5617;54.046;10.676;2024-01-11T03:03:52;0.50;99.90
11126;DHT22;5617;54.046;10.676;2024-01-11T03:06:00;0.50;99.90
11126;DHT22;5617;54.046;10.676;2024-01-11T03:08:08;0.50;99.90
11126;DHT22;5617;54.046;10.676;2024-01-11T03:10:16;0.60;99.90
11126;DHT22;5617;54.046;10.676;2024-01-11T03:12:26;0.60;99.90
11126;DHT22;5617;54.046;10.676;2024-01-11T03:14:33;0.60;99.90
11126;DHT22;5617;54.046;10.676;2024-01-11T03:16:41;0.50;99.90
11126;DHT22;5617;54.046;10.676;2024-01-11T03:18:50;0.60;99.90
11126;DHT22;5617;54.046;10.676;2024-01-11T03:21:07;0.50;99.90
11126;DHT22;5617;54.046;10.676;2024-01-11T03:23:18;0.50;99.90
11126;DHT22;5617;54.046;10.676;2024-01-11T03:25:26;0.50;99.90
11126;DHT22;5617;54.046;10.676;2024-01-11T03:27:37;0.50;99.90
11126;DHT22;5617;54.046;10.676;2024-01-11T03:29:45;0.50;99.90
11126;DHT22;5617;54.046;10.676;2024-01-11T03:31:54;0.40;99.90
11126;DHT22;5617;54.046;10.676;2024-01-11T03:34:02;0.50;99.90
11126;DHT22;5617;54.046;10.676;2024-01-11T03:36:11;0.50;99.90
11126;DHT22;5617;54.046;10.676;2024-01-11T03:38:20;0.50;99.90
11126;DHT22;5617;54.046;10.676;2024-01-11T03:40:31;0.50;99.90
11126;DHT22;5617;54.046;10.676;2024-01-11T03:42:41;0.60;99.90
11126;DHT22;5617;54.046;10.676;2024-01-11T03:44:50;0.50;99.90
11126;DHT22;5617;54.046;10.676;2024-01-11T03:46:57;0.50;99.90
11126;DHT22;5617;54.046;10.676;2024-01-11T03:49:05;0.40;99.90
11126;DHT22;5617;54.046;10.676;2024-01-11T03:51:15;0.40;99.90
11126;DHT22;5617;54.046;10.676;2024-01-11T03:53:23;0.40;99.90
11126;DHT22;5617;54.046;10.676;2024-01-11T03:55:31;0.40;99.90
11126;DHT22;5617;54.046;10.676;2024-01-11T03:57:41;0.40;99.90
11126;DHT22;5617;54.046;10.676;2024-01-11T03:59:51;0.50;99.90
11126;DHT22;5617;54.046;10.676;2024-01-11T04:02:00;0.40;99.90
11126;DHT22;5617;54.046;10.676;2024-01-11T04:04:09;0.40;99.90
11126;DHT22;5617;54.046;10.676;2024-01-11T04:06:20;0.40;99.90
11126;DHT22;5617;54.046;10.676;2024-01-11T04:08:29;0.40;99.90
11126;DHT22;5617;54.046;10.676;2024-01-11T04:10:38;0.40;99.90
11126;DHT22;5617;54.046;10.676;2024-01-11T04:12:47;0.40;99.90
11126;DHT22;5617;54.046;10.676;2024-01-11T04:14:56;0.40;99.90
11126;DHT22;5617;54.046;10.676;2024-01-11T04:17:05;0.40;99.90
11126;DHT22;5617;54.046;10.676;2024-01-11T04:19:13;0.40;99.90
11126;DHT22;5617;54.046;10.676;2024-01-11T04:21:26;0.40;99.90
11126;DHT22;5617;54.046;10.676;2024-01-11T04:23:35;0.40;99.90
11126;DHT22;5617;54.046;10.676;2024-01-11T04:25:44;0.40;99.90
11126;DHT22;5617;54.046;10.676;2024-01-11T04:27:54;0.50;99.90
11126;DHT22;5617;54.046;10.676;2024-01-11T04:30:03;0.50;99.90
11126;DHT22;5617;54.046;10.676;2024-01-11T04:32:11;0.50;99.90
11126;DHT22;5617;54.046;10.676;2024-01-11T04:34:19;0.50;99.90
11126;DHT22;5617;54.046;10.676;2024-01-11T04:36:28;0.50;99.90
11126;DHT22;5617;54.046;10.676;2024-01-11T04:38:36;0.50;99.90
11126;DHT22;5617;54.046;10.676;2024-01-11T04:40:45;0.50;99.90
11126;DHT22;5617;54.046;10.676;2024-01-11T04:42:54;0.40;99.90
11126;DHT22;5617;54.046;10.676;2024-01-11T04:45:03;0.50;99.90
11126;DHT22;5617;54.046;10.676;2024-01-11T04:47:12;0.50;99.90
11126;DHT22;5617;54.046;10.676;2024-01-11T04:49:21;0.50;99.90
11126;DHT22;5617;54.046;10.676;2024-01-11T04:51:28;0.50;99.90
11126;DHT22;5617;54.046;10.676;2024-01-11T04:53:37;0.70;99.90
11126;DHT22;5617;54.046;10.676;2024-01-11T04:55:45;0.50;99.90
11126;DHT22;5617;54.046;10.676;2024-01-11T04:57:55;0.50;99.90
11126;DHT22;5617;54.046;10.676;2024-01-11T05:00:04;0.60;99.90
11126;DHT22;5617;54.046;10.676;2024-01-11T05:02:13;0.50;99.90
11126;DHT22;5617;54.046;10.676;2024-01-11T05:04:21;0.50;99.90
11126;DHT22;5617;54.046;10.676;2024-01-11T05:06:30;0.50;99.90
11126;DHT22;5617;54.046;10.676;2024-01-11T05:08:37;0.50;99.90
11126;DHT22;5617;54.046;10.676;2024-01-11T05:10:46;0.60;99.90
11126;DHT22;5617;54.046;10.676;2024-01-11T05:12:55;0.60;99.90
11126;DHT22;5617;54.046;10.676;2024-01-11T05:15:05;0.70;99.90
11126;DHT22;5617;54.046;10.676;2024-01-11T05:17:15;0.60;99.90
11126;DHT22;5617;54.046;10.676;2024-01-11T05:19:23;0.60;99.90
11126;DHT22;5617;54.046;10.676;2024-01-11T05:21:31;0.60;99.90
11126;DHT22;5617;54.046;10.676;2024-01-11T05:23:40;0.60;99.90
11126;DHT22;5617;54.046;10.676;2024-01-11T05:25:48;0.60;99.90
11126;DHT22;5617;54.046;10.676;2024-01-11T05:27:58;0.60;99.90
11126;DHT22;5617;54.046;10.676;2024-01-11T05:30:07;0.60;99.90
11126;DHT22;5617;54.046;10.676;2024-01-11T05:32:18;0.60;99.90
11126;DHT22;5617;54.046;10.676;2024-01-11T05:34:29;0.60;99.90
11126;DHT22;5617;54.046;10.676;2024-01-11T05:36:38;0.60;99.90
11126;DHT22;5617;54.046;10.676;2024-01-11T05:38:46;0.60;99.90
11126;DHT22;5617;54.046;10.676;2024-01-11T05:40:55;0.60;99.90
11126;DHT22;5617;54.046;10.676;2024-01-11T05:43:05;0.60;99.90
11126;DHT22;5617;54.046;10.676;2024-01-11T05:45:13;0.70;99.90
11126;DHT22;5617;54.046;10.676;2024-01-11T05:47:29;0.70;99.90
11126;DHT22;5617;54.046;10.676;2024-01-11T05:49:37;0.70;99.90
11126;DHT22;5617;54.046;10.676;2024-01-11T05:51:46;0.70;99.90
11126;DHT22;5617;54.046;10.676;2024-01-11T05:53:54;0.70;99.90
11126;DHT22;5617;54.046;10.676;2024-01-11T05:56:09;0.70;99.90
11126;DHT22;5617;54.046;10.676;2024-01-11T05:58:19;0.70;99.90
11126;DHT22;5617;54.046;10.676;2024-01-11T06:00:28;0.70;99.90
11126;DHT22;5617;54.046;10.676;2024-01-11T06:02:36;0.70;99.90
11126;DHT22;5617;54.046;10.676;2024-01-11T06:04:45;0.70;99.90
11126;DHT22;5617;54.046;10.676;2024-01-11T06:06:55;0.70;99.90
11126;DHT22;5617;54.046;10.676;2024-01-11T06:09:03;0.80;99.90
11126;DHT22;5617;54.046;10.676;2024-01-11T06:11:12;0.80;99.90
11126;DHT22;5617;54.046;10.676;2024-01-11T06:13:22;0.80;99.90
11126;DHT22;5617;54.046;10.676;2024-01-11T06:15:31;0.80;99.90
11126;DHT22;5617;54.046;10.676;2024-01-11T06:17:40;0.80;99.90
11126;DHT22;5617;54.046;10.676;2024-01-11T06:19:50;0.80;99.90
11126;DHT22;5617;54.046;10.676;2024-01-11T06:21:59;0.90;99.90
11126;DHT22;5617;54.046;10.676;2024-01-11T06:24:07;0.90;99.90
11126;DHT22;5617;54.046;10.676;2024-01-11T06:26:16;0.90;99.90
11126;DHT22;5617;54.046;10.676;2024-01-11T06:28:25;0.90;99.90
11126;DHT22;5617;54.046;10.676;2024-01-11T06:30:34;1.00;99.90
11126;DHT22;5617;54.046;10.676;2024-01-11T06:32:42;1.00;99.90
11126;DHT22;5617;54.046;10.676;2024-01-11T06:34:52;1.00;99.90
11126;DHT22;5617;54.046;10.676;2024-01-11T06:37:01;1.00;99.90
11126;DHT22;5617;54.046;10.676;2024-01-11T06:39:09;1.10;99.90
11126;DHT22;5617;54.046;10.676;2024-01-11T06:41:19;1.10;99.90
11126;DHT22;5617;54.046;10.676;2024-01-11T06:43:29;1.00;99.90
11126;DHT22;5617;54.046;10.676;2024-01-11T06:45:37;1.00;99.90
11126;DHT22;5617;54.046;10.676;2024-01-11T06:47:46;1.00;99.90
11126;DHT22;5617;54.046;10.676;2024-01-11T06:49:55;1.10;99.90
11126;DHT22;5617;54.046;10.676;2024-01-11T06:52:04;1.00;99.90
11126;DHT22;5617;54.046;10.676;2024-01-11T06:54:13;0.90;99.90
11126;DHT22;5617;54.046;10.676;2024-01-11T06:56:21;1.00;99.90
11126;DHT22;5617;54.046;10.676;2024-01-11T06:58:31;1.10;99.90
11126;DHT22;5617;54.046;10.676;2024-01-11T07:00:39;1.00;99.90
11126;DHT22;5617;54.046;10.676;2024-01-11T07:02:51;1.00;99.90
11126;DHT22;5617;54.046;10.676;2024-01-11T07:05:00;0.90;99.90
11126;DHT22;5617;54.046;10.676;2024-01-11T07:07:09;0.90;99.90
11126;DHT22;5617;54.046;10.676;2024-01-11T07:09:18;0.90;99.90
11126;DHT22;5617;54.046;10.676;2024-01-11T07:11:27;0.90;99.90
11126;DHT22;5617;54.046;10.676;2024-01-11T07:13:37;1.00;99.90
11126;DHT22;5617;54.046;10.676;2024-01-11T07:15:46;0.90;99.90
11126;DHT22;5617;54.046;10.676;2024-01-11T07:17:55;0.90;99.90
11126;DHT22;5617;54.046;10.676;2024-01-11T07:20:04;0.90;99.90
11126;DHT22;5617;54.046;10.676;2024-01-11T07:22:12;0.90;99.90
11126;DHT22;5617;54.046;10.676;2024-01-11T07:24:21;0.90;99.90
11126;DHT22;5617;54.046;10.676;2024-01-11T07:26:29;0.90;99.90
11126;DHT22;5617;54.046;10.676;2024-01-11T07:28:39;0.90;99.90
11126;DHT22;5617;54.046;10.676;2024-01-11T07:30:48;0.90;99.90
11126;DHT22;5617;54.046;10.676;2024-01-11T07:32:56;0.90;99.90
11126;DHT22;5617;54.046;10.676;2024-01-11T07:35:06;0.90;99.90
11126;DHT22;5617;54.046;10.676;2024-01-11T07:37:21;0.90;99.90
11126;DHT22;5617;54.046;10.676;2024-01-11T07:39:32;1.00;99.90
11126;DHT22;5617;54.046;10.676;2024-01-11T07:41:41;1.00;99.90
11126;DHT22;5617;54.046;10.676;2024-01-11T07:43:51;1.00;99.90
11126;DHT22;5617;54.046;10.676;2024-01-11T07:46:01;1.00;99.90
11126;DHT22;5617;54.046;10.676;2024-01-11T07:48:10;1.00;99.90
11126;DHT22;5617;54.046;10.676;2024-01-11T07:50:19;1.00;99.90
11126;DHT22;5617;54.046;10.676;2024-01-11T07:52:27;1.00;99.90
11126;DHT22;5617;54.046;10.676;2024-01-11T07:54:36;1.00;99.90
11126;DHT22;5617;54.046;10.676;2024-01-11T07:56:45;1.10;99.90
11126;DHT22;5617;54.046;10.676;2024-01-11T07:58:54;1.10;99.90
11126;DHT22;5617;54.046;10.676;2024-01-11T08:01:03;1.10;99.90
11126;DHT22;5617;54.046;10.676;2024-01-11T08:03:12;1.10;99.90
11126;DHT22;5617;54.046;10.676;2024-01-11T08:05:20;1.10;99.90
11126;DHT22;5617;54.046;10.676;2024-01-11T08:07:29;1.10;99.90
11126;DHT22;5617;54.046;10.676;2024-01-11T08:09:37;1.10;99.90
11126;DHT22;5617;54.046;10.676;2024-01-11T08:11:52;1.10;99.90
11126;DHT22;5617;54.046;10.676;2024-01-11T08:14:07;1.20;99.90
11126;DHT22;5617;54.046;10.676;2024-01-11T08:16:16;1.10;99.90
11126;DHT22;5617;54.046;10.676;2024-01-11T08:18:25;1.10;99.90
11126;DHT22;5617;54.046;10.676;2024-01-11T08:20:33;1.20;99.90
11126;DHT22;5617;54.046;10.676;2024-01-11T08:22:42;1.20;99.90
11126;DHT22;5617;54.046;10.676;2024-01-11T08:24:50;1.20;99.90
11126;DHT22;5617;54.046;10.676;2024-01-11T08:26:58;1.20;99.90
11126;DHT22;5617;54.046;10.676;2024-01-11T08:29:09;1.20;99.90
11126;DHT22;5617;54.046;10.676;2024-01-11T08:31:17;1.20;99.90
11126;DHT22;5617;54.046;10.676;2024-01-11T08:33:26;1.20;99.90
11126;DHT22;5617;54.046;10.676;2024-01-11T08:35:33;1.20;99.90
11126;DHT22;5617;54.046;10.676;2024-01-11T08:37:42;1.20;99.90
11126;DHT22;5617;54.046;10.676;2024-01-11T08:39:51;1.20;99.90
11126;DHT22;5617;54.046;10.676;2024-01-11T08:42:00;1.20;99.90
11126;DHT22;5617;54.046;10.676;2024-01-11T08:44:10;1.20;99.90
11126;DHT22;5617;54.046;10.676;2024-01-11T08:46:23;1.30;99.90
11126;DHT22;5617;54.046;10.676;2024-01-11T08:48:35;1.30;99.90
11126;DHT22;5617;54.046;10.676;2024-01-11T08:50:44;1.20;99.90
11126;DHT22;5617;54.046;10.676;2024-01-11T08:52:53;1.30;99.90
11126;DHT22;5617;54.046;10.676;2024-01-11T08:55:03;1.30;99.90
11126;DHT22;5617;54.046;10.676;2024-01-11T08:57:11;1.40;99.90
11126;DHT22;5617;54.046;10.676;2024-01-11T08:59:21;1.40;99.90
11126;DHT22;5617;54.046;10.676;2024-01-11T09:01:32;1.40;99.90
11126;DHT22;5617;54.046;10.676;2024-01-11T09:03:43;1.40;99.90
11126;DHT22;5617;54.046;10.676;2024-01-11T09:05:51;1.40;99.90
11126;DHT22;5617;54.046;10.676;2024-01-11T09:07:59;1.40;99.90
11126;DHT22;5617;54.046;10.676;2024-01-11T09:10:09;1.40;99.90
11126;DHT22;5617;54.046;10.676;2024-01-11T09:12:18;1.50;99.90
11126;DHT22;5617;54.046;10.676;2024-01-11T09:14:28;1.50;99.90
11126;DHT22;5617;54.046;10.676;2024-01-11T09:16:37;1.50;99.90
11126;DHT22;5617;54.046;10.676;2024-01-11T09:18:47;1.50;99.90
11126;DHT22;5617;54.046;10.676;2024-01-11T09:20:55;1.60;99.90
11126;DHT22;5617;54.046;10.676;2024-01-11T09:23:05;1.60;99.90
11126;DHT22;5617;54.046;10.676;2024-01-11T09:25:14;1.70;99.90
11126;DHT22;5617;54.046;10.676;2024-01-11T09:27:22;1.70;99.90
11126;DHT22;5617;54.046;10.676;2024-01-11T09:29:34;1.70;99.90
11126;DHT22;5617;54.046;10.676;2024-01-11T09:31:42;1.70;99.90
11126;DHT22;5617;54.046;10.676;2024-01-11T09:33:51;1.70;99.90
11126;DHT22;5617;54.046;10.676;2024-01-11T09:36:00;1.70;99.90
11126;DHT22;5617;54.046;10.676;2024-01-11T09:38:11;1.70;99.90
11126;DHT22;5617;54.046;10.676;2024-01-11T09:40:20;1.80;99.90
11126;DHT22;5617;54.046;10.676;2024-01-11T09:42:29;1.80;99.90
11126;DHT22;5617;54.046;10.676;2024-01-11T09:44:39;1.80;99.90
11126;DHT22;5617;54.046;10.676;2024-01-11T09:46:49;1.90;99.90
11126;DHT22;5617;54.046;10.676;2024-01-11T09:49:02;1.90;99.90
11126;DHT22;5617;54.046;10.676;2024-01-11T09:51:11;1.90;99.90
11126;DHT22;5617;54.046;10.676;2024-01-11T09:53:21;2.00;99.90
11126;DHT22;5617;54.046;10.676;2024-01-11T09:55:31;2.00;99.90
11126;DHT22;5617;54.046;10.676;2024-01-11T09:57:43;2.00;99.90
11126;DHT22;5617;54.046;10.676;2024-01-11T09:59:55;2.10;99.90
11126;DHT22;5617;54.046;10.676;2024-01-11T10:02:04;2.10;99.90
11126;DHT22;5617;54.046;10.676;2024-01-11T10:04:16;2.20;99.90
11126;DHT22;5617;54.046;10.676;2024-01-11T10:06:26;2.20;99.90
11126;DHT22;5617;54.046;10.676;2024-01-11T10:08:36;2.20;99.90
11126;DHT22;5617;54.046;10.676;2024-01-11T10:10:44;2.30;99.90
11126;DHT22;5617;54.046;10.676;2024-01-11T10:12:52;2.30;99.90
11126;DHT22;5617;54.046;10.676;2024-01-11T10:15:06;2.30;99.90
11126;DHT22;5617;54.046;10.676;2024-01-11T10:17:17;2.40;99.90
11126;DHT22;5617;54.046;10.676;2024-01-11T10:19:34;2.40;99.90
11126;DHT22;5617;54.046;10.676;2024-01-11T10:21:43;2.40;99.90
11126;DHT22;5617;54.046;10.676;2024-01-11T10:23:51;2.50;99.90
11126;DHT22;5617;54.046;10.676;2024-01-11T10:26:00;2.50;99.90
11126;DHT22;5617;54.046;10.676;2024-01-11T10:28:13;2.50;99.90
11126;DHT22;5617;54.046;10.676;2024-01-11T10:30:24;2.50;99.90
11126;DHT22;5617;54.046;10.676;2024-01-11T10:32:33;2.50;99.90
11126;DHT22;5617;54.046;10.676;2024-01-11T10:34:42;2.60;99.90
11126;DHT22;5617;54.046;10.676;2024-01-11T10:36:51;2.70;99.90
11126;DHT22;5617;54.046;10.676;2024-01-11T10:39:01;2.70;99.90
11126;DHT22;5617;54.046;10.676;2024-01-11T10:41:15;2.80;99.90
11126;DHT22;5617;54.046;10.676;2024-01-11T10:43:27;2.80;99.90
11126;DHT22;5617;54.046;10.676;2024-01-11T10:45:39;2.80;99.90
11126;DHT22;5617;54.046;10.676;2024-01-11T10:47:53;2.90;99.90
11126;DHT22;5617;54.046;10.676;2024-01-11T10:50:12;2.90;99.90
11126;DHT22;5617;54.046;10.676;2024-01-11T10:52:24;3.00;99.90
11126;DHT22;5617;54.046;10.676;2024-01-11T10:54:34;3.00;99.90
11126;DHT22;5617;54.046;10.676;2024-01-11T10:56:45;3.10;99.90
11126;DHT22;5617;54.046;10.676;2024-01-11T10:58:55;3.20;99.90
11126;DHT22;5617;54.046;10.676;2024-01-11T11:01:06;3.20;99.90
11126;DHT22;5617;54.046;10.676;2024-01-11T11:03:16;3.30;99.90
11126;DHT22;5617;54.046;10.676;2024-01-11T11:05:27;3.30;99.90
11126;DHT22;5617;54.046;10.676;2024-01-11T11:07:37;3.30;99.90
11126;DHT22;5617;54.046;10.676;2024-01-11T11:09:46;3.40;99.90
11126;DHT22;5617;54.046;10.676;2024-01-11T11:11:58;3.40;99.90
11126;DHT22;5617;54.046;10.676;2024-01-11T11:14:07;3.40;99.90
11126;DHT22;5617;54.046;10.676;2024-01-11T11:16:17;3.40;99.90
11126;DHT22;5617;54.046;10.676;2024-01-11T11:18:27;3.40;99.90
11126;DHT22;5617;54.046;10.676;2024-01-11T11:20:35;3.50;99.90
11126;DHT22;5617;54.046;10.676;2024-01-11T11:22:48;3.50;99.90
11126;DHT22;5617;54.046;10.676;2024-01-11T11:25:11;3.50;99.90
11126;DHT22;5617;54.046;10.676;2024-01-11T11:27:20;3.60;99.90
11126;DHT22;5617;54.046;10.676;2024-01-11T11:29:29;3.60;99.90
11126;DHT22;5617;54.046;10.676;2024-01-11T11:31:42;3.60;99.90
11126;DHT22;5617;54.046;10.676;2024-01-11T11:33:52;3.60;99.90
11126;DHT22;5617;54.046;10.676;2024-01-11T11:36:03;3.60;99.90
11126;DHT22;5617;54.046;10.676;2024-01-11T11:38:17;3.50;99.90
11126;DHT22;5617;54.046;10.676;2024-01-11T11:40:32;3.60;99.90
11126;DHT22;5617;54.046;10.676;2024-01-11T11:42:43;3.60;99.90
11126;DHT22;5617;54.046;10.676;2024-01-11T11:44:54;3.60;99.90
11126;DHT22;5617;54.046;10.676;2024-01-11T11:47:22;3.70;99.90
11126;DHT22;5617;54.046;10.676;2024-01-11T11:50:02;3.70;99.90
11126;DHT22;5617;54.046;10.676;2024-01-11T11:52:14;3.70;99.90
11126;DHT22;5617;54.046;10.676;2024-01-11T11:54:23;3.70;99.90
11126;DHT22;5617;54.046;10.676;2024-01-11T11:56:32;3.70;99.90
11126;DHT22;5617;54.046;10.676;2024-01-11T11:58:42;3.70;99.90
11126;DHT22;5617;54.046;10.676;2024-01-11T12:00:50;3.80;99.90
11126;DHT22;5617;54.046;10.676;2024-01-11T12:03:02;3.80;99.90
11126;DHT22;5617;54.046;10.676;2024-01-11T12:05:15;3.80;99.90
11126;DHT22;5617;54.046;10.676;2024-01-11T12:07:24;3.80;99.90
11126;DHT22;5617;54.046;10.676;2024-01-11T12:09:41;3.80;99.90
11126;DHT22;5617;54.046;10.676;2024-01-11T12:11:50;3.80;99.90
11126;DHT22;5617;54.046;10.676;2024-01-11T12:14:11;3.90;99.90
11126;DHT22;5617;54.046;10.676;2024-01-11T12:16:20;3.80;99.90
11126;DHT22;5617;54.046;10.676;2024-01-11T12:18:33;3.90;99.90
11126;DHT22;5617;54.046;10.676;2024-01-11T12:20:42;3.90;99.90
11126;DHT22;5617;54.046;10.676;2024-01-11T12:22:49;3.90;99.90
11126;DHT22;5617;54.046;10.676;2024-01-11T12:24:58;3.90;99.90
11126;DHT22;5617;54.046;10.676;2024-01-11T12:27:07;3.90;99.90
11126;DHT22;5617;54.046;10.676;2024-01-11T12:29:17;3.90;99.90
11126;DHT22;5617;54.046;10.676;2024-01-11T12:31:28;3.90;99.90
11126;DHT22;5617;54.046;10.676;2024-01-11T12:33:38;4.00;99.90
11126;DHT22;5617;54.046;10.676;2024-01-11T12:35:46;4.00;99.90
11126;DHT22;5617;54.046;10.676;2024-01-11T12:37:55;4.00;99.90
11126;DHT22;5617;54.046;10.676;2024-01-11T12:40:04;4.00;99.90
11126;DHT22;5617;54.046;10.676;2024-01-11T12:42:13;4.00;99.90
11126;DHT22;5617;54.046;10.676;2024-01-11T12:44:22;4.00;99.90
11126;DHT22;5617;54.046;10.676;2024-01-11T12:46:31;4.00;99.90
11126;DHT22;5617;54.046;10.676;2024-01-11T12:48:41;4.00;99.90
11126;DHT22;5617;54.046;10.676;2024-01-11T12:50:52;4.00;99.90
11126;DHT22;5617;54.046;10.676;2024-01-11T12:53:19;4.00;99.90
11126;DHT22;5617;54.046;10.676;2024-01-11T12:55:27;3.90;99.90
11126;DHT22;5617;54.046;10.676;2024-01-11T12:57:36;3.90;99.90
11126;DHT22;5617;54.046;10.676;2024-01-11T12:59:45;3.90;99.90
11126;DHT22;5617;54.046;10.676;2024-01-11T13:01:56;3.80;99.90
11126;DHT22;5617;54.046;10.676;2024-01-11T13:04:09;3.80;99.90
11126;DHT22;5617;54.046;10.676;2024-01-11T13:06:19;3.80;99.90
11126;DHT22;5617;54.046;10.676;2024-01-11T13:08:30;3.80;99.90
11126;DHT22;5617;54.046;10.676;2024-01-11T13:10:39;3.80;99.90
11126;DHT22;5617;54.046;10.676;2024-01-11T13:12:47;3.80;99.90
11126;DHT22;5617;54.046;10.676;2024-01-11T13:15:05;3.80;99.90
11126;DHT22;5617;54.046;10.676;2024-01-11T13:17:20;3.80;99.90
11126;DHT22;5617;54.046;10.676;2024-01-11T13:19:32;3.70;99.90
11126;DHT22;5617;54.046;10.676;2024-01-11T13:21:39;3.70;99.90
11126;DHT22;5617;54.046;10.676;2024-01-11T13:23:48;3.80;99.90
11126;DHT22;5617;54.046;10.676;2024-01-11T13:25:56;3.70;99.90
11126;DHT22;5617;54.046;10.676;2024-01-11T13:28:05;3.70;99.90
11126;DHT22;5617;54.046;10.676;2024-01-11T13:30:14;3.70;99.90
11126;DHT22;5617;54.046;10.676;2024-01-11T13:32:22;3.70;99.90
11126;DHT22;5617;54.046;10.676;2024-01-11T13:34:32;3.70;99.90
11126;DHT22;5617;54.046;10.676;2024-01-11T13:36:41;3.60;99.90
11126;DHT22;5617;54.046;10.676;2024-01-11T13:38:50;3.60;99.90
11126;DHT22;5617;54.046;10.676;2024-01-11T13:40:58;3.60;99.90
11126;DHT22;5617;54.046;10.676;2024-01-11T13:43:06;3.50;99.90
11126;DHT22;5617;54.046;10.676;2024-01-11T13:45:15;3.50;99.90
11126;DHT22;5617;54.046;10.676;2024-01-11T13:47:22;3.50;99.90
11126;DHT22;5617;54.046;10.676;2024-01-11T13:49:32;3.50;99.90
11126;DHT22;5617;54.046;10.676;2024-01-11T13:51:42;3.50;99.90